»·PEaware :: UAL511 KFAT-KSFO

UAL511 :: KFAT-KSFO

FLIGHT INFORMATION

Flight Status: Arrived
Operator:
United Airlines
More flights by this operator :: More flights under this callsign
Pilot: Dave M. (4986)
Aircraft: BOEING 737-200
(B732)
More flights by this aircraft type
Origin: KFAT Fresno Yosemite Intl
United States
Destination: KSFO San Francisco Intl
United States
More flights between these airports :: More routes between these airports
Route: +BULL2 CZQ MOD8
File this flight plan on PilotEdge
Remarks:
Altitude:
(Current/Filed)
22,000ft
Speed:
(Current/Filed)
450kts
Departed: 24-Jan-18 06:11 PM
Arrived: 24-Jan-18 06:45 PM
Distance/Time
Traveled:
137nm/0:34
Distance/Time
To Go:
Arrived

Flight Plot

Page will automatically refresh every two minutes.

Flight plan parsing failed; only flown route is shown


Map Options




Map Legend


Flown Route
Filed Route
Departure Airport
Arrival Airport
Navaid (VOR, NDB)
Fix

Horizontal Profiles

Position Reports

Time Latitude Longitude Heading Altitude Ground
Speed
24-Jan-18 17:46 36.770777 -119.718386 311 336ft 0kts
24-Jan-18 17:47 36.770777 -119.718386 311 336ft 0kts
24-Jan-18 17:48 36.770777 -119.718386 311 336ft 0kts
24-Jan-18 17:49 36.770777 -119.718386 311 336ft 0kts
24-Jan-18 17:50 36.770777 -119.718386 311 336ft 0kts
24-Jan-18 17:51 36.770777 -119.718386 311 336ft 0kts
24-Jan-18 17:52 36.770777 -119.718386 311 336ft 0kts
24-Jan-18 17:53 36.770777 -119.718386 311 336ft 0kts
24-Jan-18 17:54 36.770777 -119.718386 311 336ft 0kts
24-Jan-18 17:55 36.770777 -119.718386 311 336ft 0kts
24-Jan-18 17:56 36.770777 -119.718386 311 336ft 0kts
24-Jan-18 17:57 36.770777 -119.718386 311 336ft 0kts
24-Jan-18 17:58 36.770777 -119.718386 311 336ft 0kts
24-Jan-18 17:59 36.770777 -119.718386 311 336ft 0kts
24-Jan-18 18:00 36.770777 -119.718386 311 336ft 0kts
24-Jan-18 18:01 36.770777 -119.718386 311 336ft 0kts
24-Jan-18 18:02 36.770777 -119.718386 311 336ft 0kts
24-Jan-18 18:03 36.770777 -119.718386 311 336ft 0kts
24-Jan-18 18:04 36.770777 -119.718386 311 336ft 0kts
24-Jan-18 18:05 36.770660 -119.718223 311 336ft 2kts
24-Jan-18 18:06 36.770153 -119.717958 25 336ft 2kts
24-Jan-18 18:07 36.770061 -119.718035 35 336ft 0kts
24-Jan-18 18:08 36.770061 -119.718035 35 336ft 0kts
24-Jan-18 18:09 36.771319 -119.716916 33 336ft 0kts
24-Jan-18 18:10 36.771405 -119.716843 34 336ft 2kts
24-Jan-18 18:11 36.771425 -119.716826 34 336ft 0kts
24-Jan-18 18:12 36.771921 -119.716365 46 336ft 13kts
24-Jan-18 18:13 36.770025 -119.712075 125 336ft 19kts
24-Jan-18 18:14 36.767607 -119.705786 89 336ft 20kts
24-Jan-18 18:15 36.768049 -119.704308 29 336ft 0kts
24-Jan-18 18:16 36.768049 -119.704308 29 336ft 0kts
24-Jan-18 18:17 36.770466 -119.706283 309 336ft 48kts
24-Jan-18 18:18 36.792446 -119.745505 304 1015ft 214kts
24-Jan-18 18:19 36.830017 -119.814937 304 3033ft 267kts
24-Jan-18 18:20 36.872461 -119.894225 304 6304ft 268kts
24-Jan-18 18:21 36.915249 -119.967842 304 9152ft 272kts
24-Jan-18 18:22 36.971763 -120.036610 342 10035ft 313kts
24-Jan-18 18:23 37.062432 -120.034126 1 10258ft 332kts
24-Jan-18 18:24 37.140192 -120.068565 306 10960ft 330kts
24-Jan-18 18:25 37.207303 -120.151558 311 14167ft 349kts
24-Jan-18 18:26 37.281422 -120.233216 311 16971ft 364kts
24-Jan-18 18:27 37.362241 -120.319723 312 18112ft 413kts
24-Jan-18 18:28 37.453227 -120.419741 312 18105ft 456kts
24-Jan-18 18:29 37.539580 -120.533967 286 18692ft 438kts
24-Jan-18 18:30 37.557596 -120.675099 274 18095ft 401kts
24-Jan-18 18:31 37.582239 -120.785973 278 17653ft 327kts
24-Jan-18 18:32 37.607595 -120.892580 278 15316ft 302kts
24-Jan-18 18:33 37.611047 -120.991721 257 12713ft 287kts
24-Jan-18 18:34 37.609656 -121.087174 271 11118ft 275kts
24-Jan-18 18:35 37.602027 -121.178276 259 11107ft 262kts
24-Jan-18 18:36 37.592390 -121.266998 259 11121ft 264kts
24-Jan-18 18:37 37.581491 -121.361519 259 11123ft 283kts
24-Jan-18 18:38 37.569786 -121.460291 259 11126ft 294kts
24-Jan-18 18:39 37.557850 -121.562505 259 11121ft 300kts
24-Jan-18 18:40 37.537746 -121.662418 249 11121ft 301kts
24-Jan-18 18:41 37.511839 -121.755950 249 9413ft 287kts
24-Jan-18 18:42 37.499588 -121.847848 263 8107ft 245kts
24-Jan-18 18:43 37.497215 -121.924518 263 8115ft 235kts
24-Jan-18 18:44 37.494170 -121.997016 263 6181ft 249kts
24-Jan-18 18:45 37.495665 -122.075278 295 4245ft 231kts
24-Jan-18 18:46 37.521977 -122.139437 297 3923ft 202kts
24-Jan-18 18:47 37.548308 -122.202022 297 2823ft 202kts
24-Jan-18 18:48 37.573621 -122.262109 297 1731ft 187kts
24-Jan-18 18:49 37.595365 -122.313798 296 804ft 147kts
24-Jan-18 18:50 37.613105 -122.355997 296 67ft 127kts
24-Jan-18 18:51 37.622057 -122.378801 277 21ft 30kts
24-Jan-18 18:52 37.622270 -122.382242 267 21ft 13kts
24-Jan-18 18:53 37.621864 -122.387356 297 21ft 15kts
24-Jan-18 18:54 37.621481 -122.391536 162 21ft 4kts
24-Jan-18 18:55 37.621094 -122.390689 118 21ft 0kts
24-Jan-18 18:56 37.621089 -122.390677 118 21ft 0kts

Navigation Log

Ident Type
Flight plan parsing failed, navigation log unavailable